sensor_id;sensor_type;location;lat;lon;timestamp;noise_LAeq;noise_LA_min;noise_LA_max;noise_LA01;noise_LA95
37279;Laerm;7458;49.002;8.472;2024-01-07T00:02:19;90.59;44.51;97.92;;
37279;Laerm;7458;49.002;8.472;2024-01-07T00:04:45;90.76;48.95;97.42;;
37279;Laerm;7458;49.002;8.472;2024-01-07T00:07:12;90.52;45.36;98.17;;
37279;Laerm;7458;49.002;8.472;2024-01-07T00:09:38;90.46;44.07;98.39;;
37279;Laerm;7458;49.002;8.472;2024-01-07T00:12:04;90.55;43.44;99.24;;
37279;Laerm;7458;49.002;8.472;2024-01-07T00:14:30;90.21;44.43;97.88;;
37279;Laerm;7458;49.002;8.472;2024-01-07T00:16:56;89.99;45.01;97.34;;
37279;Laerm;7458;49.002;8.472;2024-01-07T00:19:23;89.76;43.29;97.89;;
37279;Laerm;7458;49.002;8.472;2024-01-07T00:21:49;89.60;42.41;97.94;;
37279;Laerm;7458;49.002;8.472;2024-01-07T00:24:16;89.53;42.88;98.08;;
37279;Laerm;7458;49.002;8.472;2024-01-07T00:26:42;89.65;43.86;98.19;;
37279;Laerm;7458;49.002;8.472;2024-01-07T00:29:08;89.07;43.09;97.36;;
37279;Laerm;7458;49.002;8.472;2024-01-07T00:31:34;89.01;43.24;97.46;;
37279;Laerm;7458;49.002;8.472;2024-01-07T00:34:00;89.24;42.35;97.55;;
37279;Laerm;7458;49.002;8.472;2024-01-07T00:36:26;89.34;42.88;97.29;;
37279;Laerm;7458;49.002;8.472;2024-01-07T00:38:52;89.40;41.30;97.58;;
37279;Laerm;7458;49.002;8.472;2024-01-07T00:41:19;89.38;41.46;99.25;;
37279;Laerm;7458;49.002;8.472;2024-01-07T00:43:45;89.35;42.71;97.87;;
37279;Laerm;7458;49.002;8.472;2024-01-07T00:46:11;88.88;42.53;96.99;;
37279;Laerm;7458;49.002;8.472;2024-01-07T00:48:37;88.67;41.96;97.15;;
37279;Laerm;7458;49.002;8.472;2024-01-07T00:51:04;87.74;41.89;97.02;;
37279;Laerm;7458;49.002;8.472;2024-01-07T00:53:30;87.93;41.89;96.65;;
37279;Laerm;7458;49.002;8.472;2024-01-07T00:55:56;87.91;41.75;97.42;;
37279;Laerm;7458;49.002;8.472;2024-01-07T00:58:23;88.68;41.38;97.71;;
37279;Laerm;7458;49.002;8.472;2024-01-07T01:00:49;88.42;41.53;97.02;;
37279;Laerm;7458;49.002;8.472;2024-01-07T01:03:15;88.48;41.38;97.52;;
37279;Laerm;7458;49.002;8.472;2024-01-07T01:05:41;89.18;42.47;97.22;;
37279;Laerm;7458;49.002;8.472;2024-01-07T01:08:08;88.44;41.14;97.07;;
37279;Laerm;7458;49.002;8.472;2024-01-07T01:10:34;88.34;41.46;98.67;;
37279;Laerm;7458;49.002;8.472;2024-01-07T01:13:00;87.99;41.22;97.43;;
37279;Laerm;7458;49.002;8.472;2024-01-07T01:15:26;88.57;41.30;96.94;;
37279;Laerm;7458;49.002;8.472;2024-01-07T01:17:52;87.88;41.30;96.24;;
37279;Laerm;7458;49.002;8.472;2024-01-07T01:20:18;88.00;40.80;96.57;;
37279;Laerm;7458;49.002;8.472;2024-01-07T01:22:44;87.64;41.06;96.77;;
37279;Laerm;7458;49.002;8.472;2024-01-07T01:25:10;87.95;40.71;96.71;;
37279;Laerm;7458;49.002;8.472;2024-01-07T01:27:37;87.62;40.62;96.49;;
37279;Laerm;7458;49.002;8.472;2024-01-07T01:30:03;87.54;40.53;96.82;;
37279;Laerm;7458;49.002;8.472;2024-01-07T01:32:30;87.58;41.06;96.82;;
37279;Laerm;7458;49.002;8.472;2024-01-07T01:34:56;88.00;42.76;97.55;;
37279;Laerm;7458;49.002;8.472;2024-01-07T01:37:22;88.39;43.09;96.32;;
37279;Laerm;7458;49.002;8.472;2024-01-07T01:39:48;88.25;42.93;98.24;;
37279;Laerm;7458;49.002;8.472;2024-01-07T01:42:14;88.07;43.81;97.30;;
37279;Laerm;7458;49.002;8.472;2024-01-07T01:44:41;87.74;43.72;96.26;;
37279;Laerm;7458;49.002;8.472;2024-01-07T01:47:09;87.91;43.99;96.62;;
37279;Laerm;7458;49.002;8.472;2024-01-07T01:49:36;87.13;42.16;97.16;;
37279;Laerm;7458;49.002;8.472;2024-01-07T01:52:04;86.76;41.82;96.68;;
37279;Laerm;7458;49.002;8.472;2024-01-07T01:54:31;86.66;40.43;95.87;;
37279;Laerm;7458;49.002;8.472;2024-01-07T01:56:57;86.97;41.30;96.36;;
37279;Laerm;7458;49.002;8.472;2024-01-07T01:59:24;87.00;40.98;96.48;;
37279;Laerm;7458;49.002;8.472;2024-01-07T02:01:51;86.81;40.23;96.21;;
37279;Laerm;7458;49.002;8.472;2024-01-07T02:04:18;86.97;41.53;96.32;;
37279;Laerm;7458;49.002;8.472;2024-01-07T02:06:45;87.12;40.62;96.93;;
37279;Laerm;7458;49.002;8.472;2024-01-07T02:09:11;87.05;40.43;96.05;;
37279;Laerm;7458;49.002;8.472;2024-01-07T02:11:43;86.70;40.33;96.72;;
37279;Laerm;7458;49.002;8.472;2024-01-07T02:14:09;86.94;40.23;97.13;;
37279;Laerm;7458;49.002;8.472;2024-01-07T02:16:35;87.22;41.96;96.69;;
37279;Laerm;7458;49.002;8.472;2024-01-07T02:19:06;86.80;41.06;96.58;;
37279;Laerm;7458;49.002;8.472;2024-01-07T02:21:32;87.32;40.98;96.23;;
37279;Laerm;7458;49.002;8.472;2024-01-07T02:23:58;86.56;41.06;96.53;;
37279;Laerm;7458;49.002;8.472;2024-01-07T02:26:24;86.32;40.98;95.63;;
37279;Laerm;7458;49.002;8.472;2024-01-07T02:28:51;86.15;41.30;95.76;;
37279;Laerm;7458;49.002;8.472;2024-01-07T02:31:17;86.44;40.62;96.25;;
37279;Laerm;7458;49.002;8.472;2024-01-07T02:33:43;86.51;40.43;96.63;;
37279;Laerm;7458;49.002;8.472;2024-01-07T02:36:09;86.82;41.61;96.06;;
37279;Laerm;7458;49.002;8.472;2024-01-07T02:38:35;86.87;41.30;96.31;;
37279;Laerm;7458;49.002;8.472;2024-01-07T02:41:01;86.94;40.62;96.57;;
37279;Laerm;7458;49.002;8.472;2024-01-07T02:43:28;87.09;41.30;96.32;;
37279;Laerm;7458;49.002;8.472;2024-01-07T02:45:54;86.61;41.53;96.69;;
37279;Laerm;7458;49.002;8.472;2024-01-07T02:48:20;86.89;41.14;96.00;;
37279;Laerm;7458;49.002;8.472;2024-01-07T02:50:45;87.03;41.53;96.70;;
37279;Laerm;7458;49.002;8.472;2024-01-07T02:53:12;86.33;40.80;96.13;;
37279;Laerm;7458;49.002;8.472;2024-01-07T02:55:38;87.04;40.80;96.60;;
37279;Laerm;7458;49.002;8.472;2024-01-07T02:58:04;86.84;40.23;96.17;;
37279;Laerm;7458;49.002;8.472;2024-01-07T03:00:30;86.96;41.30;96.49;;
37279;Laerm;7458;49.002;8.472;2024-01-07T03:02:56;87.50;40.71;97.24;;
37279;Laerm;7458;49.002;8.472;2024-01-07T03:05:22;88.33;41.22;96.98;;
37279;Laerm;7458;49.002;8.472;2024-01-07T03:07:48;87.33;40.96;96.31;;
37279;Laerm;7458;49.002;8.472;2024-01-07T03:10:14;88.14;40.23;97.54;;
37279;Laerm;7458;49.002;8.472;2024-01-07T03:12:41;88.08;40.36;97.39;;
37279;Laerm;7458;49.002;8.472;2024-01-07T03:15:07;88.01;41.75;97.15;;
37279;Laerm;7458;49.002;8.472;2024-01-07T03:17:34;88.15;41.22;97.64;;
37279;Laerm;7458;49.002;8.472;2024-01-07T03:20:01;88.00;40.71;97.52;;
37279;Laerm;7458;49.002;8.472;2024-01-07T03:22:27;88.28;41.30;98.78;;
37279;Laerm;7458;49.002;8.472;2024-01-07T03:24:53;88.79;41.53;96.68;;
37279;Laerm;7458;49.002;8.472;2024-01-07T03:27:19;88.59;40.43;97.28;;
37279;Laerm;7458;49.002;8.472;2024-01-07T03:29:45;89.00;41.30;97.65;;
37279;Laerm;7458;49.002;8.472;2024-01-07T03:32:11;89.27;41.68;97.89;;
37279;Laerm;7458;49.002;8.472;2024-01-07T03:34:39;89.36;42.22;97.99;;
37279;Laerm;7458;49.002;8.472;2024-01-07T03:37:05;88.80;41.38;97.79;;
37279;Laerm;7458;49.002;8.472;2024-01-07T03:39:34;89.72;41.22;97.72;;
37279;Laerm;7458;49.002;8.472;2024-01-07T03:42:01;89.76;41.89;98.51;;
37279;Laerm;7458;49.002;8.472;2024-01-07T03:44:27;89.60;40.80;97.93;;
37279;Laerm;7458;49.002;8.472;2024-01-07T03:46:53;89.65;41.82;98.10;;
37279;Laerm;7458;49.002;8.472;2024-01-07T03:49:19;89.99;42.88;98.06;;
37279;Laerm;7458;49.002;8.472;2024-01-07T03:51:45;89.53;40.80;97.49;;
37279;Laerm;7458;49.002;8.472;2024-01-07T03:54:11;89.69;41.89;97.40;;
37279;Laerm;7458;49.002;8.472;2024-01-07T03:56:37;90.11;41.61;97.93;;
37279;Laerm;7458;49.002;8.472;2024-01-07T03:59:03;89.65;41.75;97.44;;
37279;Laerm;7458;49.002;8.472;2024-01-07T04:01:30;89.68;41.61;97.25;;
37279;Laerm;7458;49.002;8.472;2024-01-07T04:03:56;89.62;43.04;97.85;;
37279;Laerm;7458;49.002;8.472;2024-01-07T04:06:22;90.44;42.03;98.26;;
37279;Laerm;7458;49.002;8.472;2024-01-07T04:08:48;90.11;41.82;97.41;;
37279;Laerm;7458;49.002;8.472;2024-01-07T04:11:13;89.74;41.75;98.29;;
37279;Laerm;7458;49.002;8.472;2024-01-07T04:13:40;89.63;42.93;97.74;;
37279;Laerm;7458;49.002;8.472;2024-01-07T04:16:05;89.51;42.35;97.92;;
37279;Laerm;7458;49.002;8.472;2024-01-07T04:18:31;89.20;43.63;96.62;;
37279;Laerm;7458;49.002;8.472;2024-01-07T04:20:58;88.34;44.62;98.06;;
37279;Laerm;7458;49.002;8.472;2024-01-07T04:23:24;87.12;44.65;96.93;;
37279;Laerm;7458;49.002;8.472;2024-01-07T04:25:50;86.90;41.89;96.60;;
37279;Laerm;7458;49.002;8.472;2024-01-07T04:28:16;86.94;41.46;97.82;;
37279;Laerm;7458;49.002;8.472;2024-01-07T04:30:42;86.57;41.82;96.96;;
37279;Laerm;7458;49.002;8.472;2024-01-07T04:33:07;87.08;42.03;96.32;;
37279;Laerm;7458;49.002;8.472;2024-01-07T04:35:33;86.98;42.06;96.58;;
37279;Laerm;7458;49.002;8.472;2024-01-07T04:38:00;86.74;40.89;96.46;;
37279;Laerm;7458;49.002;8.472;2024-01-07T04:40:26;87.64;42.03;96.50;;
37279;Laerm;7458;49.002;8.472;2024-01-07T04:42:52;87.11;40.89;95.95;;
37279;Laerm;7458;49.002;8.472;2024-01-07T04:45:18;87.59;41.30;95.91;;
37279;Laerm;7458;49.002;8.472;2024-01-07T04:47:44;87.35;41.46;96.13;;
37279;Laerm;7458;49.002;8.472;2024-01-07T04:50:10;87.10;40.89;97.30;;
37279;Laerm;7458;49.002;8.472;2024-01-07T04:52:36;87.17;41.53;97.38;;
37279;Laerm;7458;49.002;8.472;2024-01-07T04:55:03;87.29;42.35;96.95;;
37279;Laerm;7458;49.002;8.472;2024-01-07T04:57:29;87.30;41.30;96.74;;
37279;Laerm;7458;49.002;8.472;2024-01-07T04:59:55;87.32;41.96;96.46;;
37279;Laerm;7458;49.002;8.472;2024-01-07T05:02:21;87.10;41.22;96.36;;
37279;Laerm;7458;49.002;8.472;2024-01-07T05:04:47;86.93;42.16;95.65;;
37279;Laerm;7458;49.002;8.472;2024-01-07T05:07:13;87.54;40.80;96.93;;
37279;Laerm;7458;49.002;8.472;2024-01-07T05:09:40;87.81;41.22;96.64;;
37279;Laerm;7458;49.002;8.472;2024-01-07T05:12:06;87.27;41.30;96.60;;
37279;Laerm;7458;49.002;8.472;2024-01-07T05:14:32;87.51;41.14;96.36;;
37279;Laerm;7458;49.002;8.472;2024-01-07T05:16:58;87.41;42.03;97.29;;
37279;Laerm;7458;49.002;8.472;2024-01-07T05:19:24;87.10;41.30;96.06;;
37279;Laerm;7458;49.002;8.472;2024-01-07T05:21:50;87.38;41.61;97.19;;
37279;Laerm;7458;49.002;8.472;2024-01-07T05:24:16;87.63;41.53;95.77;;
37279;Laerm;7458;49.002;8.472;2024-01-07T05:26:44;87.91;42.47;97.02;;
37279;Laerm;7458;49.002;8.472;2024-01-07T05:29:10;87.62;41.68;97.22;;
37279;Laerm;7458;49.002;8.472;2024-01-07T05:31:37;87.86;41.46;97.44;;
37279;Laerm;7458;49.002;8.472;2024-01-07T05:34:04;87.68;41.53;96.42;;
37279;Laerm;7458;49.002;8.472;2024-01-07T05:36:30;88.06;41.96;97.11;;
37279;Laerm;7458;49.002;8.472;2024-01-07T05:38:56;88.07;42.47;97.39;;
37279;Laerm;7458;49.002;8.472;2024-01-07T05:41:22;88.10;41.68;96.91;;
37279;Laerm;7458;49.002;8.472;2024-01-07T05:43:48;88.23;41.61;97.79;;
37279;Laerm;7458;49.002;8.472;2024-01-07T05:46:14;88.09;41.61;96.32;;
37279;Laerm;7458;49.002;8.472;2024-01-07T05:48:46;88.06;42.16;96.60;;
37279;Laerm;7458;49.002;8.472;2024-01-07T05:51:13;88.16;41.46;96.84;;
37279;Laerm;7458;49.002;8.472;2024-01-07T05:53:43;88.12;42.35;96.69;;
37279;Laerm;7458;49.002;8.472;2024-01-07T05:56:10;88.20;41.14;98.24;;
37279;Laerm;7458;49.002;8.472;2024-01-07T05:58:36;88.16;41.89;97.04;;
37279;Laerm;7458;49.002;8.472;2024-01-07T06:01:02;87.96;41.38;97.20;;
37279;Laerm;7458;49.002;8.472;2024-01-07T06:03:28;88.29;41.75;96.15;;
37279;Laerm;7458;49.002;8.472;2024-01-07T06:05:54;87.94;41.06;97.24;;
37279;Laerm;7458;49.002;8.472;2024-01-07T06:08:20;88.18;42.29;96.75;;
37279;Laerm;7458;49.002;8.472;2024-01-07T06:10:47;88.25;40.98;98.27;;
37279;Laerm;7458;49.002;8.472;2024-01-07T06:13:13;88.14;40.71;96.95;;
37279;Laerm;7458;49.002;8.472;2024-01-07T06:15:39;88.35;41.14;97.65;;
37279;Laerm;7458;49.002;8.472;2024-01-07T06:18:05;88.42;40.43;96.29;;
37279;Laerm;7458;49.002;8.472;2024-01-07T06:20:31;88.41;42.03;97.32;;
37279;Laerm;7458;49.002;8.472;2024-01-07T06:22:57;88.28;42.03;97.25;;
37279;Laerm;7458;49.002;8.472;2024-01-07T06:25:23;88.57;42.47;97.82;;
37279;Laerm;7458;49.002;8.472;2024-01-07T06:27:52;88.49;41.61;97.09;;
37279;Laerm;7458;49.002;8.472;2024-01-07T06:30:18;88.41;40.71;97.15;;
37279;Laerm;7458;49.002;8.472;2024-01-07T06:32:45;88.48;41.82;97.23;;
37279;Laerm;7458;49.002;8.472;2024-01-07T06:35:11;88.41;41.82;96.30;;
37279;Laerm;7458;49.002;8.472;2024-01-07T06:37:38;88.15;40.98;96.84;;
37279;Laerm;7458;49.002;8.472;2024-01-07T06:40:04;88.37;42.47;96.63;;
37279;Laerm;7458;49.002;8.472;2024-01-07T06:42:30;88.40;42.22;96.11;;
37279;Laerm;7458;49.002;8.472;2024-01-07T06:44:56;88.62;41.96;96.26;;
37279;Laerm;7458;49.002;8.472;2024-01-07T06:47:22;89.15;41.06;96.74;;
37279;Laerm;7458;49.002;8.472;2024-01-07T06:49:48;88.90;42.03;97.22;;
37279;Laerm;7458;49.002;8.472;2024-01-07T06:52:14;88.60;42.88;96.61;;
37279;Laerm;7458;49.002;8.472;2024-01-07T06:54:41;88.60;42.58;97.07;;
37279;Laerm;7458;49.002;8.472;2024-01-07T06:57:07;88.39;43.29;96.50;;
37279;Laerm;7458;49.002;8.472;2024-01-07T06:59:33;88.32;42.29;97.15;;
37279;Laerm;7458;49.002;8.472;2024-01-07T07:01:59;88.32;42.88;97.43;;
37279;Laerm;7458;49.002;8.472;2024-01-07T07:04:25;88.16;42.09;97.25;;
37279;Laerm;7458;49.002;8.472;2024-01-07T07:06:51;88.47;42.35;96.78;;
37279;Laerm;7458;49.002;8.472;2024-01-07T07:09:17;88.22;42.09;97.43;;
37279;Laerm;7458;49.002;8.472;2024-01-07T07:11:43;88.44;43.39;97.46;;
37279;Laerm;7458;49.002;8.472;2024-01-07T07:14:09;88.66;42.93;96.76;;
37279;Laerm;7458;49.002;8.472;2024-01-07T07:16:35;88.70;42.35;96.52;;
37279;Laerm;7458;49.002;8.472;2024-01-07T07:19:01;89.10;42.93;97.17;;
37279;Laerm;7458;49.002;8.472;2024-01-07T07:21:28;88.48;42.59;97.18;;
37279;Laerm;7458;49.002;8.472;2024-01-07T07:23:54;88.46;43.29;96.94;;
37279;Laerm;7458;49.002;8.472;2024-01-07T07:26:20;88.55;42.29;96.38;;
37279;Laerm;7458;49.002;8.472;2024-01-07T07:28:47;88.54;42.41;96.88;;
37279;Laerm;7458;49.002;8.472;2024-01-07T07:31:13;88.38;43.44;97.53;;
37279;Laerm;7458;49.002;8.472;2024-01-07T07:33:39;88.65;43.39;98.04;;
37279;Laerm;7458;49.002;8.472;2024-01-07T07:36:06;88.57;42.93;97.13;;
37279;Laerm;7458;49.002;8.472;2024-01-07T07:38:32;88.57;43.86;97.45;;
37279;Laerm;7458;49.002;8.472;2024-01-07T07:40:59;88.56;43.19;97.32;;
37279;Laerm;7458;49.002;8.472;2024-01-07T07:43:26;88.60;43.19;96.61;;
37279;Laerm;7458;49.002;8.472;2024-01-07T07:45:52;88.63;43.54;97.34;;
37279;Laerm;7458;49.002;8.472;2024-01-07T07:48:18;88.52;43.29;96.37;;
37279;Laerm;7458;49.002;8.472;2024-01-07T07:50:45;88.44;43.14;97.11;;
37279;Laerm;7458;49.002;8.472;2024-01-07T07:53:11;88.68;43.94;97.21;;
37279;Laerm;7458;49.002;8.472;2024-01-07T07:55:37;88.77;43.19;97.36;;
37279;Laerm;7458;49.002;8.472;2024-01-07T07:58:03;88.80;43.77;97.77;;
37279;Laerm;7458;49.002;8.472;2024-01-07T08:00:29;88.77;43.19;96.84;;
37279;Laerm;7458;49.002;8.472;2024-01-07T08:02:56;88.87;43.49;97.26;;
37279;Laerm;7458;49.002;8.472;2024-01-07T08:05:22;89.13;43.72;96.93;;
37279;Laerm;7458;49.002;8.472;2024-01-07T08:07:48;88.88;42.65;96.94;;
37279;Laerm;7458;49.002;8.472;2024-01-07T08:10:14;88.86;43.39;96.80;;
37279;Laerm;7458;49.002;8.472;2024-01-07T08:12:40;88.52;43.39;96.82;;
37279;Laerm;7458;49.002;8.472;2024-01-07T08:15:07;88.76;42.47;97.18;;
37279;Laerm;7458;49.002;8.472;2024-01-07T08:17:33;89.17;43.99;97.22;;
37279;Laerm;7458;49.002;8.472;2024-01-07T08:19:59;89.46;43.34;97.51;;
37279;Laerm;7458;49.002;8.472;2024-01-07T08:22:27;89.47;44.80;97.33;;
37279;Laerm;7458;49.002;8.472;2024-01-07T08:24:53;89.47;43.49;97.06;;
37279;Laerm;7458;49.002;8.472;2024-01-07T08:27:20;89.78;44.58;97.53;;
37279;Laerm;7458;49.002;8.472;2024-01-07T08:29:53;90.06;45.97;97.63;;
37279;Laerm;7458;49.002;8.472;2024-01-07T08:32:20;90.50;45.48;97.89;;
37279;Laerm;7458;49.002;8.472;2024-01-07T08:34:48;89.50;44.39;97.61;;
37279;Laerm;7458;49.002;8.472;2024-01-07T08:37:14;90.08;43.86;98.28;;
37279;Laerm;7458;49.002;8.472;2024-01-07T08:39:41;89.57;42.93;97.50;;
37279;Laerm;7458;49.002;8.472;2024-01-07T08:42:07;89.20;43.63;97.41;;
37279;Laerm;7458;49.002;8.472;2024-01-07T08:44:33;89.72;44.31;97.49;;
37279;Laerm;7458;49.002;8.472;2024-01-07T08:46:59;89.80;43.81;97.69;;
37279;Laerm;7458;49.002;8.472;2024-01-07T08:49:30;89.93;44.31;98.23;;
37279;Laerm;7458;49.002;8.472;2024-01-07T08:51:56;89.95;43.77;97.50;;
37279;Laerm;7458;49.002;8.472;2024-01-07T08:54:23;90.17;44.62;98.11;;
37279;Laerm;7458;49.002;8.472;2024-01-07T08:56:49;90.20;44.19;98.29;;
37279;Laerm;7458;49.002;8.472;2024-01-07T08:59:15;89.70;44.58;97.81;;
37279;Laerm;7458;49.002;8.472;2024-01-07T09:01:41;90.50;46.27;97.78;;
37279;Laerm;7458;49.002;8.472;2024-01-07T09:04:07;90.48;44.65;98.53;;
37279;Laerm;7458;49.002;8.472;2024-01-07T09:06:34;89.92;43.81;97.69;;
37279;Laerm;7458;49.002;8.472;2024-01-07T09:09:00;90.29;44.54;97.42;;
37279;Laerm;7458;49.002;8.472;2024-01-07T09:11:26;89.85;44.15;97.65;;
37279;Laerm;7458;49.002;8.472;2024-01-07T09:13:52;90.74;44.80;98.26;;
37279;Laerm;7458;49.002;8.472;2024-01-07T09:16:18;91.79;47.12;99.27;;
37279;Laerm;7458;49.002;8.472;2024-01-07T09:18:44;92.15;46.33;98.87;;
37279;Laerm;7458;49.002;8.472;2024-01-07T09:21:11;92.74;46.40;100.92;;
37279;Laerm;7458;49.002;8.472;2024-01-07T09:23:37;91.70;45.48;99.27;;
37279;Laerm;7458;49.002;8.472;2024-01-07T09:26:04;91.63;44.94;99.49;;
37279;Laerm;7458;49.002;8.472;2024-01-07T09:28:30;93.27;46.07;100.85;;
37279;Laerm;7458;49.002;8.472;2024-01-07T09:30:56;92.59;46.80;100.08;;
37279;Laerm;7458;49.002;8.472;2024-01-07T09:33:22;93.00;46.76;99.68;;
37279;Laerm;7458;49.002;8.472;2024-01-07T09:35:50;91.50;47.02;98.31;;
37279;Laerm;7458;49.002;8.472;2024-01-07T09:38:16;92.30;44.97;99.38;;
37279;Laerm;7458;49.002;8.472;2024-01-07T09:40:42;94.84;45.97;101.34;;
37279;Laerm;7458;49.002;8.472;2024-01-07T09:43:09;92.85;47.26;100.36;;
37279;Laerm;7458;49.002;8.472;2024-01-07T09:45:41;92.98;45.54;100.17;;
37279;Laerm;7458;49.002;8.472;2024-01-07T09:48:08;92.25;45.23;99.70;;
37279;Laerm;7458;49.002;8.472;2024-01-07T09:50:34;92.61;45.86;99.58;;
37279;Laerm;7458;49.002;8.472;2024-01-07T09:53:02;93.89;48.36;100.87;;
37279;Laerm;7458;49.002;8.472;2024-01-07T09:55:51;93.71;45.89;100.33;;
37279;Laerm;7458;49.002;8.472;2024-01-07T09:58:18;93.30;47.96;99.67;;
37279;Laerm;7458;49.002;8.472;2024-01-07T10:01:22;94.30;45.89;101.17;;
37279;Laerm;7458;49.002;8.472;2024-01-07T10:03:48;93.73;44.97;101.24;;
37279;Laerm;7458;49.002;8.472;2024-01-07T10:06:18;93.60;45.01;101.00;;
37279;Laerm;7458;49.002;8.472;2024-01-07T10:08:46;85.23;43.09;100.34;;
37279;Laerm;7458;49.002;8.472;2024-01-07T10:11:15;59.45;44.16;70.29;;
37279;Laerm;7458;49.002;8.472;2024-01-07T10:13:41;60.51;43.29;72.57;;
37279;Laerm;7458;49.002;8.472;2024-01-07T10:16:08;60.39;42.93;72.02;;
37279;Laerm;7458;49.002;8.472;2024-01-07T10:18:34;60.33;43.19;70.87;;
37279;Laerm;7458;49.002;8.472;2024-01-07T10:21:05;60.69;43.34;70.68;;
37279;Laerm;7458;49.002;8.472;2024-01-07T10:23:32;60.30;42.76;71.21;;
37279;Laerm;7458;49.002;8.472;2024-01-07T10:25:58;60.52;42.88;70.70;;
37279;Laerm;7458;49.002;8.472;2024-01-07T10:28:25;60.57;42.71;71.29;;
37279;Laerm;7458;49.002;8.472;2024-01-07T10:30:51;60.93;43.14;73.61;;
37279;Laerm;7458;49.002;8.472;2024-01-07T10:33:18;60.68;43.29;70.85;;
37279;Laerm;7458;49.002;8.472;2024-01-07T10:35:52;60.82;42.82;71.14;;
37279;Laerm;7458;49.002;8.472;2024-01-07T10:38:21;60.98;42.76;71.27;;
37279;Laerm;7458;49.002;8.472;2024-01-07T10:40:52;60.92;43.39;71.24;;
37279;Laerm;7458;49.002;8.472;2024-01-07T10:43:20;62.69;43.81;74.29;;
37279;Laerm;7458;49.002;8.472;2024-01-07T10:45:48;61.05;41.89;71.72;;
37279;Laerm;7458;49.002;8.472;2024-01-07T10:48:20;61.33;43.14;71.59;;
37279;Laerm;7458;49.002;8.472;2024-01-07T10:50:47;61.94;42.53;72.15;;
37279;Laerm;7458;49.002;8.472;2024-01-07T10:53:22;61.65;41.30;71.79;;
37279;Laerm;7458;49.002;8.472;2024-01-07T10:56:03;61.10;41.30;71.86;;
37279;Laerm;7458;49.002;8.472;2024-01-07T10:58:35;61.44;42.03;71.77;;
37279;Laerm;7458;49.002;8.472;2024-01-07T11:01:02;62.93;42.82;84.43;;
37279;Laerm;7458;49.002;8.472;2024-01-07T11:03:55;61.81;40.33;72.37;;
37279;Laerm;7458;49.002;8.472;2024-01-07T11:12:11;62.09;41.96;72.37;;
37279;Laerm;7458;49.002;8.472;2024-01-07T11:14:44;61.65;42.35;71.97;;
37279;Laerm;7458;49.002;8.472;2024-01-07T11:17:40;60.94;41.82;72.37;;
37279;Laerm;7458;49.002;8.472;2024-01-07T11:20:21;61.93;42.29;71.76;;
37279;Laerm;7458;49.002;8.472;2024-01-07T11:22:47;61.46;42.65;71.96;;
37279;Laerm;7458;49.002;8.472;2024-01-07T11:25:39;61.55;42.76;72.00;;
37279;Laerm;7458;49.002;8.472;2024-01-07T11:28:06;61.84;42.88;74.90;;
37279;Laerm;7458;49.002;8.472;2024-01-07T11:30:38;61.86;43.63;72.59;;
37279;Laerm;7458;49.002;8.472;2024-01-07T11:33:06;62.24;42.90;74.30;;
37279;Laerm;7458;49.002;8.472;2024-01-07T11:36:02;61.17;42.29;72.31;;
37279;Laerm;7458;49.002;8.472;2024-01-07T11:38:30;61.79;42.76;72.10;;
37279;Laerm;7458;49.002;8.472;2024-01-07T11:40:57;62.20;43.49;72.29;;
37279;Laerm;7458;49.002;8.472;2024-01-07T11:43:25;62.28;42.88;72.18;;
37279;Laerm;7458;49.002;8.472;2024-01-07T11:45:51;62.96;43.49;80.67;;
37279;Laerm;7458;49.002;8.472;2024-01-07T11:48:19;62.25;43.24;72.11;;
37279;Laerm;7458;49.002;8.472;2024-01-07T11:50:45;62.22;42.47;72.34;;
37279;Laerm;7458;49.002;8.472;2024-01-07T11:53:12;61.97;42.88;72.43;;
37279;Laerm;7458;49.002;8.472;2024-01-07T11:55:38;62.05;43.09;72.49;;
37279;Laerm;7458;49.002;8.472;2024-01-07T11:58:05;62.58;42.88;72.48;;
37279;Laerm;7458;49.002;8.472;2024-01-07T12:00:32;62.09;43.19;72.23;;
37279;Laerm;7458;49.002;8.472;2024-01-07T12:02:59;62.15;43.14;72.42;;
37279;Laerm;7458;49.002;8.472;2024-01-07T12:05:26;62.30;43.44;72.27;;
37279;Laerm;7458;49.002;8.472;2024-01-07T12:07:52;62.56;42.82;74.42;;
37279;Laerm;7458;49.002;8.472;2024-01-07T12:10:19;62.00;43.39;72.18;;
37279;Laerm;7458;49.002;8.472;2024-01-07T12:12:45;61.95;43.68;72.24;;
37279;Laerm;7458;49.002;8.472;2024-01-07T12:15:12;61.98;43.09;73.05;;
37279;Laerm;7458;49.002;8.472;2024-01-07T12:17:40;62.01;42.53;73.12;;
37279;Laerm;7458;49.002;8.472;2024-01-07T12:20:07;62.29;43.14;72.28;;
37279;Laerm;7458;49.002;8.472;2024-01-07T12:22:40;61.78;42.98;74.83;;
37279;Laerm;7458;49.002;8.472;2024-01-07T12:25:07;62.17;42.88;75.23;;
37279;Laerm;7458;49.002;8.472;2024-01-07T12:27:34;62.26;42.98;72.43;;
37279;Laerm;7458;49.002;8.472;2024-01-07T12:30:01;62.12;42.88;72.88;;
37279;Laerm;7458;49.002;8.472;2024-01-07T12:32:31;62.42;42.65;72.56;;
37279;Laerm;7458;49.002;8.472;2024-01-07T12:35:01;62.44;42.98;73.22;;
37279;Laerm;7458;49.002;8.472;2024-01-07T12:37:28;62.25;42.03;72.85;;
37279;Laerm;7458;49.002;8.472;2024-01-07T12:39:54;61.88;41.82;73.34;;
37279;Laerm;7458;49.002;8.472;2024-01-07T12:42:20;61.93;42.41;73.08;;
37279;Laerm;7458;49.002;8.472;2024-01-07T12:44:50;62.20;43.14;73.16;;
37279;Laerm;7458;49.002;8.472;2024-01-07T12:47:17;62.20;42.06;72.53;;
37279;Laerm;7458;49.002;8.472;2024-01-07T12:49:43;63.01;42.24;80.11;;
37279;Laerm;7458;49.002;8.472;2024-01-07T12:52:09;62.29;41.82;73.00;;
37279;Laerm;7458;49.002;8.472;2024-01-07T12:54:36;62.80;42.35;72.48;;
37279;Laerm;7458;49.002;8.472;2024-01-07T12:57:03;62.52;42.09;74.46;;
37279;Laerm;7458;49.002;8.472;2024-01-07T12:59:29;62.49;42.09;72.69;;
37279;Laerm;7458;49.002;8.472;2024-01-07T13:01:55;62.06;42.59;73.04;;
37279;Laerm;7458;49.002;8.472;2024-01-07T13:04:21;62.19;43.14;72.36;;
37279;Laerm;7458;49.002;8.472;2024-01-07T13:06:48;62.26;43.14;72.98;;
37279;Laerm;7458;49.002;8.472;2024-01-07T13:09:14;62.43;42.22;73.35;;
37279;Laerm;7458;49.002;8.472;2024-01-07T13:11:40;62.48;42.64;72.59;;
37279;Laerm;7458;49.002;8.472;2024-01-07T13:14:07;62.18;42.88;76.95;;
37279;Laerm;7458;49.002;8.472;2024-01-07T13:16:34;62.59;41.89;76.44;;
37279;Laerm;7458;49.002;8.472;2024-01-07T13:19:00;62.05;42.59;76.95;;
37279;Laerm;7458;49.002;8.472;2024-01-07T13:21:26;62.22;42.93;73.24;;
37279;Laerm;7458;49.002;8.472;2024-01-07T13:23:52;62.11;42.82;73.11;;
37279;Laerm;7458;49.002;8.472;2024-01-07T13:26:18;62.05;42.47;72.84;;
37279;Laerm;7458;49.002;8.472;2024-01-07T13:28:44;62.21;42.82;73.49;;
37279;Laerm;7458;49.002;8.472;2024-01-07T13:31:10;62.52;43.24;72.56;;
37279;Laerm;7458;49.002;8.472;2024-01-07T13:33:40;61.79;43.44;72.42;;
37279;Laerm;7458;49.002;8.472;2024-01-07T13:36:07;62.09;41.89;72.42;;
37279;Laerm;7458;49.002;8.472;2024-01-07T13:38:36;61.82;42.22;72.64;;
37279;Laerm;7458;49.002;8.472;2024-01-07T13:41:04;62.08;42.35;72.65;;
37279;Laerm;7458;49.002;8.472;2024-01-07T13:43:30;62.56;42.98;72.81;;
37279;Laerm;7458;49.002;8.472;2024-01-07T13:45:56;62.03;42.59;72.53;;
37279;Laerm;7458;49.002;8.472;2024-01-07T13:48:22;61.95;41.68;73.22;;
37279;Laerm;7458;49.002;8.472;2024-01-07T13:50:48;62.11;41.94;72.81;;
37279;Laerm;7458;49.002;8.472;2024-01-07T13:53:15;62.26;42.82;73.35;;
37279;Laerm;7458;49.002;8.472;2024-01-07T13:55:42;62.17;43.19;72.90;;
37279;Laerm;7458;49.002;8.472;2024-01-07T13:58:08;61.92;42.93;73.25;;
37279;Laerm;7458;49.002;8.472;2024-01-07T14:00:34;62.44;42.53;72.99;;
37279;Laerm;7458;49.002;8.472;2024-01-07T14:03:00;61.86;43.49;72.76;;